createdAt,value
2024-05-09T00:04:55.911Z,101568
2024-05-09T00:11:53.857Z,101567
2024-05-09T00:18:56.041Z,101564
2024-05-09T00:25:50.200Z,101562
2024-05-09T00:33:24.238Z,101564
2024-05-09T00:41:05.685Z,101560
2024-05-09T00:48:02.135Z,101558
2024-05-09T00:55:12.213Z,101550
2024-05-09T01:02:13.231Z,101551
2024-05-09T01:09:19.662Z,101554
2024-05-09T01:16:25.308Z,101559
2024-05-09T01:23:37.250Z,101558
2024-05-09T01:30:34.361Z,101551
2024-05-09T01:37:38.563Z,101553
2024-05-09T01:44:38.531Z,101548
2024-05-09T01:51:56.236Z,101548
2024-05-09T01:58:50.487Z,101542
2024-05-09T02:05:45.530Z,101549
2024-05-09T02:12:43.013Z,101547
2024-05-09T02:19:57.262Z,101534
2024-05-09T02:27:13.807Z,101535
2024-05-09T02:34:21.412Z,101541
2024-05-09T02:41:19.022Z,101532
2024-05-09T02:48:31.884Z,101530
2024-05-09T02:55:31.419Z,101535
2024-05-09T03:02:39.051Z,101537
2024-05-09T03:09:48.490Z,101537
2024-05-09T03:17:38.305Z,101533
2024-05-09T03:24:36.495Z,101535
2024-05-09T03:31:41.786Z,101541
2024-05-09T03:38:42.885Z,101530
2024-05-09T03:45:54.961Z,101525
2024-05-09T03:53:54.906Z,101525
2024-05-09T04:01:29.421Z,101526
2024-05-09T04:10:04.121Z,101530
2024-05-09T04:17:36.484Z,101534
2024-05-09T04:25:30.934Z,101539
2024-05-09T04:32:20.590Z,101545
2024-05-09T04:39:15.797Z,101545
2024-05-09T04:46:28.145Z,101546
2024-05-09T04:53:38.661Z,101542
2024-05-09T05:01:15.379Z,101548
2024-05-09T05:08:26.915Z,101546
2024-05-09T05:15:29.202Z,101541
2024-05-09T05:22:30.181Z,101552
2024-05-09T05:29:25.330Z,101546
2024-05-09T05:36:22.749Z,101546
2024-05-09T05:43:42.063Z,101551
2024-05-09T05:50:48.423Z,101557
2024-05-09T05:57:43.900Z,101557
2024-05-09T06:04:39.965Z,101566
2024-05-09T06:11:34.486Z,101566
2024-05-09T06:19:04.061Z,101563
2024-05-09T06:26:24.514Z,101567
2024-05-09T06:33:26.840Z,101565
2024-05-09T06:40:30.113Z,101570
2024-05-09T06:47:36.528Z,101564
2024-05-09T06:54:41.101Z,101570
2024-05-09T07:01:35.875Z,101576
2024-05-09T07:08:39.812Z,101579
2024-05-09T07:15:41.821Z,101581
2024-05-09T07:22:46.759Z,101586
2024-05-09T07:31:50.661Z,101579
2024-05-09T07:38:50.679Z,101573
2024-05-09T07:48:13.929Z,101570
2024-05-09T07:59:49.522Z,101570
2024-05-09T08:06:51.593Z,101567
2024-05-09T08:13:58.859Z,101562
2024-05-09T08:20:56.713Z,101557
2024-05-09T08:27:46.157Z,101552
2024-05-09T08:34:56.871Z,101547
2024-05-09T08:42:14.627Z,101547
2024-05-09T08:49:19.923Z,101549
2024-05-09T08:56:21.220Z,101546
2024-05-09T09:03:12.758Z,101537
2024-05-09T09:10:13.076Z,101527
2024-05-09T09:17:19.626Z,101529
2024-05-09T09:24:19.474Z,101504
2024-05-09T09:31:17.790Z,101502
2024-05-09T09:38:17.316Z,101498
2024-05-09T09:45:29.062Z,101498
2024-05-09T09:52:34.826Z,101491
2024-05-09T09:59:41.715Z,101479
2024-05-09T10:06:40.572Z,101479
2024-05-09T10:13:32.608Z,101471
2024-05-09T10:19:59.807Z,101471
2024-05-09T10:27:00.309Z,101461
2024-05-09T10:33:47.306Z,101447
2024-05-09T10:40:46.509Z,101441
2024-05-09T10:47:17.021Z,101445
2024-05-09T10:54:29.018Z,101434
2024-05-09T11:01:17.509Z,101424
2024-05-09T11:08:13.009Z,101422
2024-05-09T11:15:05.010Z,101412
2024-05-09T11:21:54.777Z,101415
2024-05-09T11:28:57.735Z,101397
2024-05-09T11:35:57.862Z,101394
2024-05-09T11:42:53.331Z,101391
2024-05-09T11:50:16.303Z,101380
2024-05-09T11:57:33.122Z,101375
2024-05-09T12:04:35.362Z,101358
2024-05-09T12:11:58.614Z,101349
2024-05-09T12:19:06.695Z,101344
2024-05-09T12:34:25.429Z,101323
2024-05-09T12:41:43.942Z,101320
2024-05-09T12:49:14.437Z,101313
2024-05-09T12:56:26.425Z,101296
2024-05-09T13:03:22.871Z,101287
2024-05-09T13:10:30.631Z,101285
2024-05-09T13:17:32.801Z,101281
2024-05-09T13:24:37.729Z,101271
2024-05-09T13:31:47.016Z,101270
2024-05-09T13:38:47.126Z,101261
2024-05-09T13:45:48.432Z,101261
2024-05-09T13:52:48.930Z,101253
2024-05-09T13:59:55.705Z,101244
2024-05-09T14:07:36.586Z,101243
2024-05-09T14:14:41.265Z,101240
2024-05-09T14:21:51.792Z,101230
2024-05-09T14:28:52.508Z,101220
2024-05-09T14:35:52.216Z,101210
2024-05-09T14:50:00.179Z,101205
2024-05-09T14:57:16.184Z,101203
2024-05-09T15:04:17.477Z,101195
2024-05-09T15:11:16.746Z,101181
2024-05-09T15:18:32.408Z,101178
2024-05-09T15:25:38.705Z,101166
2024-05-09T15:32:31.201Z,101163
2024-05-09T15:39:24.885Z,101156
2024-05-09T15:46:18.119Z,101146
2024-05-09T15:53:14.366Z,101137
2024-05-09T16:01:00.643Z,101142
2024-05-09T16:07:54.255Z,101134
2024-05-09T16:15:04.391Z,101129
2024-05-09T16:22:01.134Z,101127
2024-05-09T16:29:05.566Z,101124
2024-05-09T16:35:55.630Z,101125
2024-05-09T16:42:51.977Z,101108
2024-05-09T16:49:48.968Z,101110
2024-05-09T16:56:37.859Z,101109
2024-05-09T17:03:41.148Z,101106
2024-05-09T17:10:54.302Z,101116
2024-05-09T17:17:58.151Z,101114
2024-05-09T17:25:12.984Z,101113
2024-05-09T17:32:05.964Z,101116
2024-05-09T17:39:03.186Z,101109
2024-05-09T17:45:53.468Z,101112
2024-05-09T17:52:58.546Z,101107
2024-05-09T18:00:06.852Z,101105
2024-05-09T18:07:28.837Z,101103
2024-05-09T18:14:29.383Z,101105
2024-05-09T18:21:27.692Z,101117
2024-05-09T18:28:30.016Z,101117
2024-05-09T18:35:28.569Z,101114
2024-05-09T18:42:49.398Z,101115
2024-05-09T18:49:50.381Z,101114
2024-05-09T18:57:07.591Z,101128
2024-05-09T19:04:01.523Z,101132
2024-05-09T19:10:59.153Z,101124
2024-05-09T19:18:05.719Z,101137
2024-05-09T19:25:04.388Z,101135
2024-05-09T19:32:01.187Z,101154
2024-05-09T19:38:58.778Z,101148
2024-05-09T19:45:55.133Z,101163
2024-05-09T19:52:53.003Z,101163
2024-05-09T19:59:46.744Z,101165
2024-05-09T20:06:48.086Z,101165
2024-05-09T20:13:49.565Z,101181
2024-05-09T20:21:07.359Z,101187
2024-05-09T20:28:07.994Z,101192
2024-05-09T20:35:13.494Z,101199
2024-05-09T20:42:26.087Z,101192
2024-05-09T20:49:25.091Z,101188
2024-05-09T20:56:26.369Z,101188
2024-05-09T21:03:28.864Z,101173
2024-05-09T21:10:47.051Z,101179
2024-05-09T21:17:52.875Z,101179
2024-05-09T21:24:41.749Z,101177
2024-05-09T21:31:46.862Z,101181
2024-05-09T21:38:56.208Z,101183
2024-05-09T21:46:01.523Z,101186
2024-05-09T21:52:57.223Z,101184
2024-05-09T21:59:51.112Z,101174
2024-05-09T22:07:06.911Z,101180
2024-05-09T22:14:06.200Z,101177
2024-05-09T22:21:05.506Z,101176
2024-05-09T22:28:00.250Z,101174
2024-05-09T22:35:10.165Z,101180
2024-05-09T22:42:04.252Z,101176
2024-05-09T22:49:05.146Z,101176
2024-05-09T22:55:59.145Z,101170
2024-05-09T23:03:02.130Z,101172
2024-05-09T23:09:55.587Z,101173
2024-05-09T23:17:06.481Z,101170
2024-05-09T23:23:59.920Z,101172
2024-05-09T23:31:03.236Z,101176
2024-05-09T23:38:16.198Z,101165
2024-05-09T23:45:10.573Z,101168
2024-05-09T23:52:10.158Z,101161
2024-05-09T23:59:14.454Z,101160
